sensor_id;sensor_type;location;lat;lon;timestamp;temperature;humidity
71088;SHT31;58747;50.674;4.616;2022-11-11T00:00:27;7.89;94.33
71088;SHT31;58747;50.674;4.616;2022-11-11T00:02:57;7.82;94.36
71088;SHT31;58747;50.674;4.616;2022-11-11T00:05:23;7.81;94.45
71088;SHT31;58747;50.674;4.616;2022-11-11T00:07:48;7.78;94.58
71088;SHT31;58747;50.674;4.616;2022-11-11T00:10:14;7.75;94.58
71088;SHT31;58747;50.674;4.616;2022-11-11T00:12:39;7.74;94.61
71088;SHT31;58747;50.674;4.616;2022-11-11T00:15:06;7.68;94.69
71088;SHT31;58747;50.674;4.616;2022-11-11T00:17:32;7.68;94.76
71088;SHT31;58747;50.674;4.616;2022-11-11T00:20:17;7.64;94.74
71088;SHT31;58747;50.674;4.616;2022-11-11T00:23:00;7.64;94.81
71088;SHT31;58747;50.674;4.616;2022-11-11T00:25:44;7.63;94.89
71088;SHT31;58747;50.674;4.616;2022-11-11T00:28:10;7.61;94.78
71088;SHT31;58747;50.674;4.616;2022-11-11T00:30:35;7.58;94.94
71088;SHT31;58747;50.674;4.616;2022-11-11T00:33:00;7.56;94.99
71088;SHT31;58747;50.674;4.616;2022-11-11T00:35:26;7.50;95.12
71088;SHT31;58747;50.674;4.616;2022-11-11T00:38:12;7.50;95.08
71088;SHT31;58747;50.674;4.616;2022-11-11T00:40:57;7.50;95.17
71088;SHT31;58747;50.674;4.616;2022-11-11T00:43:23;7.47;95.26
71088;SHT31;58747;50.674;4.616;2022-11-11T00:45:48;7.47;95.31
71088;SHT31;58747;50.674;4.616;2022-11-11T00:48:13;7.50;95.15
71088;SHT31;58747;50.674;4.616;2022-11-11T00:50:57;7.46;95.21
71088;SHT31;58747;50.674;4.616;2022-11-11T00:53:25;7.44;95.30
71088;SHT31;58747;50.674;4.616;2022-11-11T00:55:51;7.46;95.29
71088;SHT31;58747;50.674;4.616;2022-11-11T00:58:16;7.48;95.23
71088;SHT31;58747;50.674;4.616;2022-11-11T01:00:42;7.44;95.23
71088;SHT31;58747;50.674;4.616;2022-11-11T01:03:08;7.40;95.32
71088;SHT31;58747;50.674;4.616;2022-11-11T01:05:36;7.40;95.33
71088;SHT31;58747;50.674;4.616;2022-11-11T01:08:01;7.36;95.30
71088;SHT31;58747;50.674;4.616;2022-11-11T01:10:26;7.34;95.34
71088;SHT31;58747;50.674;4.616;2022-11-11T01:15:40;7.36;95.25
71088;SHT31;58747;50.674;4.616;2022-11-11T01:18:06;7.36;95.23
71088;SHT31;58747;50.674;4.616;2022-11-11T01:20:32;7.33;95.25
71088;SHT31;58747;50.674;4.616;2022-11-11T01:22:57;7.30;95.25
71088;SHT31;58747;50.674;4.616;2022-11-11T01:25:22;7.30;95.36
71088;SHT31;58747;50.674;4.616;2022-11-11T01:27:48;7.24;95.46
71088;SHT31;58747;50.674;4.616;2022-11-11T01:30:13;7.27;95.63
71088;SHT31;58747;50.674;4.616;2022-11-11T01:32:39;7.29;95.46
71088;SHT31;58747;50.674;4.616;2022-11-11T01:35:05;7.27;95.50
71088;SHT31;58747;50.674;4.616;2022-11-11T01:37:34;7.26;95.51
71088;SHT31;58747;50.674;4.616;2022-11-11T01:40:00;7.24;95.63
71088;SHT31;58747;50.674;4.616;2022-11-11T01:42:25;7.26;95.57
71088;SHT31;58747;50.674;4.616;2022-11-11T01:44:50;7.22;95.67
71088;SHT31;58747;50.674;4.616;2022-11-11T01:47:17;7.23;95.68
71088;SHT31;58747;50.674;4.616;2022-11-11T01:55:06;7.20;95.76
71088;SHT31;58747;50.674;4.616;2022-11-11T01:57:48;7.22;95.46
71088;SHT31;58747;50.674;4.616;2022-11-11T02:00:17;7.20;95.54
71088;SHT31;58747;50.674;4.616;2022-11-11T02:03:07;7.19;95.57
71088;SHT31;58747;50.674;4.616;2022-11-11T02:05:33;7.13;95.72
71088;SHT31;58747;50.674;4.616;2022-11-11T02:08:12;7.13;95.82
71088;SHT31;58747;50.674;4.616;2022-11-11T02:10:41;7.13;95.82
71088;SHT31;58747;50.674;4.616;2022-11-11T02:13:11;7.17;95.66
71088;SHT31;58747;50.674;4.616;2022-11-11T02:15:56;7.10;95.79
71088;SHT31;58747;50.674;4.616;2022-11-11T02:18:22;7.12;95.79
71088;SHT31;58747;50.674;4.616;2022-11-11T02:20:47;7.08;95.81
71088;SHT31;58747;50.674;4.616;2022-11-11T02:23:14;7.06;95.75
71088;SHT31;58747;50.674;4.616;2022-11-11T02:25:44;7.08;95.83
71088;SHT31;58747;50.674;4.616;2022-11-11T02:28:10;7.10;95.92
71088;SHT31;58747;50.674;4.616;2022-11-11T02:30:37;7.06;95.88
71088;SHT31;58747;50.674;4.616;2022-11-11T02:33:03;7.12;95.88
71088;SHT31;58747;50.674;4.616;2022-11-11T02:35:34;7.13;95.74
71088;SHT31;58747;50.674;4.616;2022-11-11T02:38:00;7.08;95.91
71088;SHT31;58747;50.674;4.616;2022-11-11T02:40:43;7.09;96.05
71088;SHT31;58747;50.674;4.616;2022-11-11T02:43:30;7.16;95.74
71088;SHT31;58747;50.674;4.616;2022-11-11T02:45:56;7.12;95.75
71088;SHT31;58747;50.674;4.616;2022-11-11T02:48:23;7.15;95.81
71088;SHT31;58747;50.674;4.616;2022-11-11T02:50:48;7.13;95.79
71088;SHT31;58747;50.674;4.616;2022-11-11T02:53:14;7.16;95.79
71088;SHT31;58747;50.674;4.616;2022-11-11T02:55:39;7.20;95.75
71088;SHT31;58747;50.674;4.616;2022-11-11T02:58:04;7.20;95.64
71088;SHT31;58747;50.674;4.616;2022-11-11T03:00:29;7.16;95.64
71088;SHT31;58747;50.674;4.616;2022-11-11T03:02:55;7.19;95.69
71088;SHT31;58747;50.674;4.616;2022-11-11T03:05:20;7.15;95.74
71088;SHT31;58747;50.674;4.616;2022-11-11T03:07:46;7.15;95.71
71088;SHT31;58747;50.674;4.616;2022-11-11T03:10:11;7.13;95.72
71088;SHT31;58747;50.674;4.616;2022-11-11T03:12:36;7.08;95.72
71088;SHT31;58747;50.674;4.616;2022-11-11T03:15:03;7.12;95.64
71088;SHT31;58747;50.674;4.616;2022-11-11T03:17:28;7.09;95.74
71088;SHT31;58747;50.674;4.616;2022-11-11T03:20:09;7.09;95.70
71088;SHT31;58747;50.674;4.616;2022-11-11T03:23:03;7.05;95.80
71088;SHT31;58747;50.674;4.616;2022-11-11T03:25:29;6.99;95.91
71088;SHT31;58747;50.674;4.616;2022-11-11T03:28:12;7.02;95.88
71088;SHT31;58747;50.674;4.616;2022-11-11T03:30:40;7.05;95.77
71088;SHT31;58747;50.674;4.616;2022-11-11T03:33:06;6.96;95.95
71088;SHT31;58747;50.674;4.616;2022-11-11T03:35:31;7.00;96.00
71088;SHT31;58747;50.674;4.616;2022-11-11T03:37:57;6.95;95.97
71088;SHT31;58747;50.674;4.616;2022-11-11T03:40:48;6.92;96.12
71088;SHT31;58747;50.674;4.616;2022-11-11T03:43:16;6.92;96.11
71088;SHT31;58747;50.674;4.616;2022-11-11T03:45:42;6.89;96.12
71088;SHT31;58747;50.674;4.616;2022-11-11T03:48:08;6.89;96.12
71088;SHT31;58747;50.674;4.616;2022-11-11T03:50:33;6.87;96.14
71088;SHT31;58747;50.674;4.616;2022-11-11T03:52:59;6.88;96.07
71088;SHT31;58747;50.674;4.616;2022-11-11T03:55:25;6.89;96.11
71088;SHT31;58747;50.674;4.616;2022-11-11T03:57:50;6.89;95.98
71088;SHT31;58747;50.674;4.616;2022-11-11T04:00:21;6.85;96.00
71088;SHT31;58747;50.674;4.616;2022-11-11T04:02:47;6.82;96.11
71088;SHT31;58747;50.674;4.616;2022-11-11T04:05:31;6.79;96.22
71088;SHT31;58747;50.674;4.616;2022-11-11T04:08:16;6.81;96.19
71088;SHT31;58747;50.674;4.616;2022-11-11T04:11:07;6.79;96.20
71088;SHT31;58747;50.674;4.616;2022-11-11T04:13:34;6.77;96.16
71088;SHT31;58747;50.674;4.616;2022-11-11T04:16:18;6.75;96.13
71088;SHT31;58747;50.674;4.616;2022-11-11T04:18:43;6.69;96.13
71088;SHT31;58747;50.674;4.616;2022-11-11T04:21:27;6.63;96.02
71088;SHT31;58747;50.674;4.616;2022-11-11T04:24:13;6.52;96.06
71088;SHT31;58747;50.674;4.616;2022-11-11T04:26:59;6.45;95.97
71088;SHT31;58747;50.674;4.616;2022-11-11T04:29:25;6.41;96.08
71088;SHT31;58747;50.674;4.616;2022-11-11T04:32:00;6.38;96.22
71088;SHT31;58747;50.674;4.616;2022-11-11T04:34:46;6.31;95.96
71088;SHT31;58747;50.674;4.616;2022-11-11T04:37:13;6.27;95.78
71088;SHT31;58747;50.674;4.616;2022-11-11T04:39:39;6.27;95.82
71088;SHT31;58747;50.674;4.616;2022-11-11T04:42:23;6.23;95.85
71088;SHT31;58747;50.674;4.616;2022-11-11T04:44:49;6.17;95.94
71088;SHT31;58747;50.674;4.616;2022-11-11T04:47:32;6.19;95.99
71088;SHT31;58747;50.674;4.616;2022-11-11T04:49:58;6.27;96.65
71088;SHT31;58747;50.674;4.616;2022-11-11T04:52:23;6.27;96.78
71088;SHT31;58747;50.674;4.616;2022-11-11T04:54:56;6.40;96.91
71088;SHT31;58747;50.674;4.616;2022-11-11T04:57:41;6.42;97.02
71088;SHT31;58747;50.674;4.616;2022-11-11T05:00:08;6.48;97.14
71088;SHT31;58747;50.674;4.616;2022-11-11T05:02:34;6.55;97.08
71088;SHT31;58747;50.674;4.616;2022-11-11T05:05:18;6.59;97.11
71088;SHT31;58747;50.674;4.616;2022-11-11T05:07:43;6.64;96.97
71088;SHT31;58747;50.674;4.616;2022-11-11T05:10:27;6.65;97.00
71088;SHT31;58747;50.674;4.616;2022-11-11T05:12:53;6.63;96.95
71088;SHT31;58747;50.674;4.616;2022-11-11T05:15:18;6.61;96.96
71088;SHT31;58747;50.674;4.616;2022-11-11T05:18:02;6.63;96.93
71088;SHT31;58747;50.674;4.616;2022-11-11T05:20:49;6.65;96.89
71088;SHT31;58747;50.674;4.616;2022-11-11T05:23:32;6.64;96.87
71088;SHT31;58747;50.674;4.616;2022-11-11T05:26:17;6.61;96.83
71088;SHT31;58747;50.674;4.616;2022-11-11T05:28:42;6.65;96.84
71088;SHT31;58747;50.674;4.616;2022-11-11T05:31:07;6.65;96.85
71088;SHT31;58747;50.674;4.616;2022-11-11T05:33:33;6.72;96.77
71088;SHT31;58747;50.674;4.616;2022-11-11T05:35:58;6.65;96.67
71088;SHT31;58747;50.674;4.616;2022-11-11T05:38:23;6.69;96.64
71088;SHT31;58747;50.674;4.616;2022-11-11T05:40:49;6.68;96.64
71088;SHT31;58747;50.674;4.616;2022-11-11T05:43:14;6.61;96.69
71088;SHT31;58747;50.674;4.616;2022-11-11T05:45:42;6.67;96.73
71088;SHT31;58747;50.674;4.616;2022-11-11T05:48:08;6.63;96.75
71088;SHT31;58747;50.674;4.616;2022-11-11T05:50:33;6.64;96.77
71088;SHT31;58747;50.674;4.616;2022-11-11T05:53:01;6.65;96.77
71088;SHT31;58747;50.674;4.616;2022-11-11T05:55:26;6.64;96.81
71088;SHT31;58747;50.674;4.616;2022-11-11T05:57:51;6.63;96.87
71088;SHT31;58747;50.674;4.616;2022-11-11T06:00:17;6.64;96.86
71088;SHT31;58747;50.674;4.616;2022-11-11T06:02:42;6.67;96.85
71088;SHT31;58747;50.674;4.616;2022-11-11T06:05:07;6.72;96.71
71088;SHT31;58747;50.674;4.616;2022-11-11T06:07:37;6.67;96.73
71088;SHT31;58747;50.674;4.616;2022-11-11T06:10:03;6.63;96.67
71088;SHT31;58747;50.674;4.616;2022-11-11T06:12:47;6.58;96.87
71088;SHT31;58747;50.674;4.616;2022-11-11T06:15:35;6.61;96.82
71088;SHT31;58747;50.674;4.616;2022-11-11T06:18:02;6.59;96.83
71088;SHT31;58747;50.674;4.616;2022-11-11T06:20:28;6.57;96.98
71088;SHT31;58747;50.674;4.616;2022-11-11T06:22:53;6.57;97.00
71088;SHT31;58747;50.674;4.616;2022-11-11T06:25:23;6.64;96.94
71088;SHT31;58747;50.674;4.616;2022-11-11T06:28:08;6.65;96.78
71088;SHT31;58747;50.674;4.616;2022-11-11T06:30:33;6.61;96.71
71088;SHT31;58747;50.674;4.616;2022-11-11T06:32:59;6.63;96.77
71088;SHT31;58747;50.674;4.616;2022-11-11T06:35:24;6.64;96.75
71088;SHT31;58747;50.674;4.616;2022-11-11T06:37:49;6.61;96.88
71088;SHT31;58747;50.674;4.616;2022-11-11T06:40:15;6.58;96.96
71088;SHT31;58747;50.674;4.616;2022-11-11T06:42:40;6.64;96.92
71088;SHT31;58747;50.674;4.616;2022-11-11T06:45:06;6.65;96.77
71088;SHT31;58747;50.674;4.616;2022-11-11T06:47:31;6.63;96.79
71088;SHT31;58747;50.674;4.616;2022-11-11T06:49:57;6.59;96.82
71088;SHT31;58747;50.674;4.616;2022-11-11T06:52:22;6.61;96.73
71088;SHT31;58747;50.674;4.616;2022-11-11T06:54:47;6.54;96.68
71088;SHT31;58747;50.674;4.616;2022-11-11T06:57:13;6.55;96.73
71088;SHT31;58747;50.674;4.616;2022-11-11T06:59:38;6.52;96.81
71088;SHT31;58747;50.674;4.616;2022-11-11T07:02:03;6.54;96.88
71088;SHT31;58747;50.674;4.616;2022-11-11T07:04:29;6.51;96.89
71088;SHT31;58747;50.674;4.616;2022-11-11T07:06:55;6.50;96.97
71088;SHT31;58747;50.674;4.616;2022-11-11T07:09:20;6.55;96.95
71088;SHT31;58747;50.674;4.616;2022-11-11T07:11:47;6.55;96.93
71088;SHT31;58747;50.674;4.616;2022-11-11T07:14:12;6.58;96.93
71088;SHT31;58747;50.674;4.616;2022-11-11T07:16:38;6.63;96.76
71088;SHT31;58747;50.674;4.616;2022-11-11T07:19:03;6.61;96.73
71088;SHT31;58747;50.674;4.616;2022-11-11T07:21:28;6.65;96.69
71088;SHT31;58747;50.674;4.616;2022-11-11T07:23:54;6.69;96.57
71088;SHT31;58747;50.674;4.616;2022-11-11T07:26:19;6.72;96.45
71088;SHT31;58747;50.674;4.616;2022-11-11T07:28:44;6.74;96.39
71088;SHT31;58747;50.674;4.616;2022-11-11T07:31:09;6.79;96.18
71088;SHT31;58747;50.674;4.616;2022-11-11T07:33:35;6.82;96.31
71088;SHT31;58747;50.674;4.616;2022-11-11T07:36:00;6.82;96.12
71088;SHT31;58747;50.674;4.616;2022-11-11T07:38:26;6.79;96.09
71088;SHT31;58747;50.674;4.616;2022-11-11T07:40:51;6.75;96.19
71088;SHT31;58747;50.674;4.616;2022-11-11T07:43:16;6.79;96.22
71088;SHT31;58747;50.674;4.616;2022-11-11T07:45:42;6.85;96.30
71088;SHT31;58747;50.674;4.616;2022-11-11T07:48:07;6.88;96.02
71088;SHT31;58747;50.674;4.616;2022-11-11T07:50:32;6.85;96.01
71088;SHT31;58747;50.674;4.616;2022-11-11T07:52:58;6.87;96.08
71088;SHT31;58747;50.674;4.616;2022-11-11T07:55:23;6.91;96.27
71088;SHT31;58747;50.674;4.616;2022-11-11T07:57:51;7.38;95.16
71088;SHT31;58747;50.674;4.616;2022-11-11T08:00:17;7.26;94.51
71088;SHT31;58747;50.674;4.616;2022-11-11T08:02:46;7.19;94.81
71088;SHT31;58747;50.674;4.616;2022-11-11T08:05:12;7.12;95.03
71088;SHT31;58747;50.674;4.616;2022-11-11T08:07:37;7.13;95.31
71088;SHT31;58747;50.674;4.616;2022-11-11T08:10:03;7.08;95.46
71088;SHT31;58747;50.674;4.616;2022-11-11T08:12:28;7.10;95.49
71088;SHT31;58747;50.674;4.616;2022-11-11T08:15:12;7.12;95.41
71088;SHT31;58747;50.674;4.616;2022-11-11T08:17:38;7.19;95.25
71088;SHT31;58747;50.674;4.616;2022-11-11T08:20:07;7.20;95.23
71088;SHT31;58747;50.674;4.616;2022-11-11T08:22:37;7.20;95.23
71088;SHT31;58747;50.674;4.616;2022-11-11T08:25:05;7.23;95.27
71088;SHT31;58747;50.674;4.616;2022-11-11T08:27:30;7.26;95.13
71088;SHT31;58747;50.674;4.616;2022-11-11T08:29:56;7.30;95.20
71088;SHT31;58747;50.674;4.616;2022-11-11T08:32:21;7.37;95.10
71088;SHT31;58747;50.674;4.616;2022-11-11T08:34:46;7.37;95.08
71088;SHT31;58747;50.674;4.616;2022-11-11T08:37:12;7.53;94.66
71088;SHT31;58747;50.674;4.616;2022-11-11T08:39:37;7.56;94.49
71088;SHT31;58747;50.674;4.616;2022-11-11T08:42:02;7.61;94.49
71088;SHT31;58747;50.674;4.616;2022-11-11T08:44:28;7.73;94.18
71088;SHT31;58747;50.674;4.616;2022-11-11T08:46:53;7.77;93.93
71088;SHT31;58747;50.674;4.616;2022-11-11T08:49:19;7.79;93.90
71088;SHT31;58747;50.674;4.616;2022-11-11T08:51:44;7.89;93.80
71088;SHT31;58747;50.674;4.616;2022-11-11T08:54:10;8.01;93.23
71088;SHT31;58747;50.674;4.616;2022-11-11T08:56:35;8.15;92.84
71088;SHT31;58747;50.674;4.616;2022-11-11T08:59:01;8.28;92.52
71088;SHT31;58747;50.674;4.616;2022-11-11T09:01:26;8.42;91.95
71088;SHT31;58747;50.674;4.616;2022-11-11T09:03:51;8.61;91.29
71088;SHT31;58747;50.674;4.616;2022-11-11T09:06:17;8.75;90.71
71088;SHT31;58747;50.674;4.616;2022-11-11T09:08:43;8.87;90.44
71088;SHT31;58747;50.674;4.616;2022-11-11T09:11:09;8.95;89.62
71088;SHT31;58747;50.674;4.616;2022-11-11T09:13:34;9.19;89.22
71088;SHT31;58747;50.674;4.616;2022-11-11T09:15:59;9.36;88.67
71088;SHT31;58747;50.674;4.616;2022-11-11T09:18:26;9.54;88.08
71088;SHT31;58747;50.674;4.616;2022-11-11T09:20:51;9.59;87.54
71088;SHT31;58747;50.674;4.616;2022-11-11T09:23:16;9.66;86.91
71088;SHT31;58747;50.674;4.616;2022-11-11T09:25:42;9.74;86.78
71088;SHT31;58747;50.674;4.616;2022-11-11T09:28:07;9.80;86.65
71088;SHT31;58747;50.674;4.616;2022-11-11T09:30:32;9.76;86.58
71088;SHT31;58747;50.674;4.616;2022-11-11T09:33:02;9.90;86.10
71088;SHT31;58747;50.674;4.616;2022-11-11T09:35:28;10.04;85.77
71088;SHT31;58747;50.674;4.616;2022-11-11T09:37:55;10.24;85.23
71088;SHT31;58747;50.674;4.616;2022-11-11T09:40:23;10.51;84.88
71088;SHT31;58747;50.674;4.616;2022-11-11T09:42:57;10.69;83.91
71088;SHT31;58747;50.674;4.616;2022-11-11T09:45:36;10.75;84.06
71088;SHT31;58747;50.674;4.616;2022-11-11T09:48:24;10.73;83.30
71088;SHT31;58747;50.674;4.616;2022-11-11T09:50:53;10.68;83.71
71088;SHT31;58747;50.674;4.616;2022-11-11T09:53:24;10.82;83.85
71088;SHT31;58747;50.674;4.616;2022-11-11T09:56:20;10.77;83.22
71088;SHT31;58747;50.674;4.616;2022-11-11T09:58:52;10.90;83.29
71088;SHT31;58747;50.674;4.616;2022-11-11T10:01:24;11.06;83.12
71088;SHT31;58747;50.674;4.616;2022-11-11T10:03:58;11.13;82.55
71088;SHT31;58747;50.674;4.616;2022-11-11T10:06:30;11.19;82.18
71088;SHT31;58747;50.674;4.616;2022-11-11T10:08:59;11.42;81.76
71088;SHT31;58747;50.674;4.616;2022-11-11T10:13:58;11.14;82.07
71088;SHT31;58747;50.674;4.616;2022-11-11T10:16:39;11.31;81.98
71088;SHT31;58747;50.674;4.616;2022-11-11T10:21:43;11.64;81.09
71088;SHT31;58747;50.674;4.616;2022-11-11T10:24:15;12.06;79.10
71088;SHT31;58747;50.674;4.616;2022-11-11T10:26:44;12.17;78.09
71088;SHT31;58747;50.674;4.616;2022-11-11T10:29:15;12.43;77.04
71088;SHT31;58747;50.674;4.616;2022-11-11T10:31:42;12.40;77.28
71088;SHT31;58747;50.674;4.616;2022-11-11T10:34:10;12.15;77.75
71088;SHT31;58747;50.674;4.616;2022-11-11T10:36:49;11.96;78.30
71088;SHT31;58747;50.674;4.616;2022-11-11T10:39:21;12.00;78.50
71088;SHT31;58747;50.674;4.616;2022-11-11T10:41:49;12.16;78.44
71088;SHT31;58747;50.674;4.616;2022-11-11T10:47:04;12.25;78.12
71088;SHT31;58747;50.674;4.616;2022-11-11T10:49:36;12.38;77.81
71088;SHT31;58747;50.674;4.616;2022-11-11T10:52:24;12.78;76.30
71088;SHT31;58747;50.674;4.616;2022-11-11T10:57:34;14.01;72.65
71088;SHT31;58747;50.674;4.616;2022-11-11T11:00:05;14.65;69.86
71088;SHT31;58747;50.674;4.616;2022-11-11T11:02:42;15.37;68.12
71088;SHT31;58747;50.674;4.616;2022-11-11T11:05:13;15.85;66.57
71088;SHT31;58747;50.674;4.616;2022-11-11T11:07:50;16.43;65.04
71088;SHT31;58747;50.674;4.616;2022-11-11T11:10:21;16.81;62.66
71088;SHT31;58747;50.674;4.616;2022-11-11T11:12:52;17.09;60.54
71088;SHT31;58747;50.674;4.616;2022-11-11T11:15:22;17.61;59.69
71088;SHT31;58747;50.674;4.616;2022-11-11T11:17:53;17.81;58.22
71088;SHT31;58747;50.674;4.616;2022-11-11T11:20:21;18.57;57.23
71088;SHT31;58747;50.674;4.616;2022-11-11T11:22:52;18.83;56.49
71088;SHT31;58747;50.674;4.616;2022-11-11T11:25:19;18.24;56.81
71088;SHT31;58747;50.674;4.616;2022-11-11T11:27:46;18.59;57.42
71088;SHT31;58747;50.674;4.616;2022-11-11T11:30:18;18.52;55.78
71088;SHT31;58747;50.674;4.616;2022-11-11T11:33:03;18.61;56.12
71088;SHT31;58747;50.674;4.616;2022-11-11T11:37:57;18.87;55.07
71088;SHT31;58747;50.674;4.616;2022-11-11T11:40:22;18.83;55.83
71088;SHT31;58747;50.674;4.616;2022-11-11T11:42:48;19.11;55.40
71088;SHT31;58747;50.674;4.616;2022-11-11T11:45:27;18.28;55.08
71088;SHT31;58747;50.674;4.616;2022-11-11T11:53:23;15.57;64.53
71088;SHT31;58747;50.674;4.616;2022-11-11T11:55:56;14.80;65.76
71088;SHT31;58747;50.674;4.616;2022-11-11T12:01:13;14.21;68.16
71088;SHT31;58747;50.674;4.616;2022-11-11T12:06:28;14.21;68.37
71088;SHT31;58747;50.674;4.616;2022-11-11T12:09:29;14.17;71.23
71088;SHT31;58747;50.674;4.616;2022-11-11T12:12:04;14.11;68.54
71088;SHT31;58747;50.674;4.616;2022-11-11T12:17:33;13.95;69.51
71088;SHT31;58747;50.674;4.616;2022-11-11T12:20:15;13.87;69.39
71088;SHT31;58747;50.674;4.616;2022-11-11T12:26:00;14.14;69.40
71088;SHT31;58747;50.674;4.616;2022-11-11T12:34:45;13.95;69.14
71088;SHT31;58747;50.674;4.616;2022-11-11T12:37:48;13.92;69.50
71088;SHT31;58747;50.674;4.616;2022-11-11T12:40:23;13.92;69.20
71088;SHT31;58747;50.674;4.616;2022-11-11T12:45:37;14.05;68.77
71088;SHT31;58747;50.674;4.616;2022-11-11T12:48:28;13.95;69.32
71088;SHT31;58747;50.674;4.616;2022-11-11T13:05:46;13.95;68.61
71088;SHT31;58747;50.674;4.616;2022-11-11T13:08:24;14.01;68.04
71088;SHT31;58747;50.674;4.616;2022-11-11T13:11:34;14.04;66.46
71088;SHT31;58747;50.674;4.616;2022-11-11T13:14:34;13.90;66.83
71088;SHT31;58747;50.674;4.616;2022-11-11T13:17:10;13.91;64.95
71088;SHT31;58747;50.674;4.616;2022-11-11T13:19:44;13.78;65.22
71088;SHT31;58747;50.674;4.616;2022-11-11T13:22:27;13.70;65.00
71088;SHT31;58747;50.674;4.616;2022-11-11T13:24:54;13.70;65.49
71088;SHT31;58747;50.674;4.616;2022-11-11T13:27:43;13.56;65.47
71088;SHT31;58747;50.674;4.616;2022-11-11T13:33:19;13.54;67.15
71088;SHT31;58747;50.674;4.616;2022-11-11T13:35:47;13.54;67.49
71088;SHT31;58747;50.674;4.616;2022-11-11T13:38:27;13.53;67.37
71088;SHT31;58747;50.674;4.616;2022-11-11T13:40:56;13.44;68.22
71088;SHT31;58747;50.674;4.616;2022-11-11T13:43:33;13.44;68.69
71088;SHT31;58747;50.674;4.616;2022-11-11T13:46:02;13.40;69.30
71088;SHT31;58747;50.674;4.616;2022-11-11T13:48:37;13.39;69.99
71088;SHT31;58747;50.674;4.616;2022-11-11T13:54:01;13.46;70.15
71088;SHT31;58747;50.674;4.616;2022-11-11T13:56:42;13.36;70.83
71088;SHT31;58747;50.674;4.616;2022-11-11T13:59:19;13.33;71.19
71088;SHT31;58747;50.674;4.616;2022-11-11T14:01:46;13.32;71.26
71088;SHT31;58747;50.674;4.616;2022-11-11T14:04:11;13.33;71.17
71088;SHT31;58747;50.674;4.616;2022-11-11T14:06:51;13.33;71.51
71088;SHT31;58747;50.674;4.616;2022-11-11T14:09:55;13.30;71.73
71088;SHT31;58747;50.674;4.616;2022-11-11T14:12:33;13.27;72.11
71088;SHT31;58747;50.674;4.616;2022-11-11T14:14:59;13.27;72.49
71088;SHT31;58747;50.674;4.616;2022-11-11T14:17:26;13.22;73.04
71088;SHT31;58747;50.674;4.616;2022-11-11T14:19:52;13.26;73.19
71088;SHT31;58747;50.674;4.616;2022-11-11T14:24:52;13.18;73.53
71088;SHT31;58747;50.674;4.616;2022-11-11T14:27:26;13.26;73.50
71088;SHT31;58747;50.674;4.616;2022-11-11T14:29:54;13.23;73.48
71088;SHT31;58747;50.674;4.616;2022-11-11T14:35:56;13.15;74.08
71088;SHT31;58747;50.674;4.616;2022-11-11T14:41:51;13.06;73.85
71088;SHT31;58747;50.674;4.616;2022-11-11T14:52:34;13.08;73.45
71088;SHT31;58747;50.674;4.616;2022-11-11T14:57:36;12.95;74.05
71088;SHT31;58747;50.674;4.616;2022-11-11T15:00:09;12.92;74.56
71088;SHT31;58747;50.674;4.616;2022-11-11T15:02:41;12.87;74.58
71088;SHT31;58747;50.674;4.616;2022-11-11T15:05:16;12.81;75.01
71088;SHT31;58747;50.674;4.616;2022-11-11T15:07:58;12.75;75.55
71088;SHT31;58747;50.674;4.616;2022-11-11T15:10:34;12.73;75.84
71088;SHT31;58747;50.674;4.616;2022-11-11T15:23:31;12.65;79.77
71088;SHT31;58747;50.674;4.616;2022-11-11T15:26:05;12.75;77.62
71088;SHT31;58747;50.674;4.616;2022-11-11T15:31:56;12.54;77.43
71088;SHT31;58747;50.674;4.616;2022-11-11T15:37:02;12.37;77.98
71088;SHT31;58747;50.674;4.616;2022-11-11T15:39:45;12.29;78.23
71088;SHT31;58747;50.674;4.616;2022-11-11T15:44:50;12.15;78.92
71088;SHT31;58747;50.674;4.616;2022-11-11T15:47:18;12.23;81.33
71088;SHT31;58747;50.674;4.616;2022-11-11T15:49:48;12.30;79.16
71088;SHT31;58747;50.674;4.616;2022-11-11T15:52:32;12.16;79.35
71088;SHT31;58747;50.674;4.616;2022-11-11T15:54:59;12.05;79.74
71088;SHT31;58747;50.674;4.616;2022-11-11T15:59:56;11.92;79.71
71088;SHT31;58747;50.674;4.616;2022-11-11T16:02:24;11.93;79.85
71088;SHT31;58747;50.674;4.616;2022-11-11T16:04:54;12.09;80.23
71088;SHT31;58747;50.674;4.616;2022-11-11T16:07:26;11.96;79.56
71088;SHT31;58747;50.674;4.616;2022-11-11T16:09:57;11.96;79.81
71088;SHT31;58747;50.674;4.616;2022-11-11T16:12:31;11.89;79.99
71088;SHT31;58747;50.674;4.616;2022-11-11T16:15:02;11.83;80.58
71088;SHT31;58747;50.674;4.616;2022-11-11T16:17:33;11.74;80.60
71088;SHT31;58747;50.674;4.616;2022-11-11T16:19:59;11.69;80.69
71088;SHT31;58747;50.674;4.616;2022-11-11T16:22:28;11.64;80.99
71088;SHT31;58747;50.674;4.616;2022-11-11T16:24:55;11.58;81.00
71088;SHT31;58747;50.674;4.616;2022-11-11T16:27:25;11.54;81.43
71088;SHT31;58747;50.674;4.616;2022-11-11T16:29:52;11.45;81.91
71088;SHT31;58747;50.674;4.616;2022-11-11T16:34:47;11.30;82.27
71088;SHT31;58747;50.674;4.616;2022-11-11T16:37:15;11.20;82.71
71088;SHT31;58747;50.674;4.616;2022-11-11T16:39:42;11.13;82.85
71088;SHT31;58747;50.674;4.616;2022-11-11T16:42:18;11.09;83.27
71088;SHT31;58747;50.674;4.616;2022-11-11T16:45:05;11.19;84.87
71088;SHT31;58747;50.674;4.616;2022-11-11T16:47:45;11.14;83.44
71088;SHT31;58747;50.674;4.616;2022-11-11T16:50:25;11.17;85.41
71088;SHT31;58747;50.674;4.616;2022-11-11T16:52:57;11.23;83.38
71088;SHT31;58747;50.674;4.616;2022-11-11T16:55:37;11.11;83.10
71088;SHT31;58747;50.674;4.616;2022-11-11T16:58:19;10.96;83.69
71088;SHT31;58747;50.674;4.616;2022-11-11T17:00:46;10.88;83.70
71088;SHT31;58747;50.674;4.616;2022-11-11T17:03:17;10.82;84.16
71088;SHT31;58747;50.674;4.616;2022-11-11T17:06:06;10.77;84.10
71088;SHT31;58747;50.674;4.616;2022-11-11T17:08:42;10.70;84.43
71088;SHT31;58747;50.674;4.616;2022-11-11T17:11:10;10.68;84.54
71088;SHT31;58747;50.674;4.616;2022-11-11T17:13:36;10.65;84.54
71088;SHT31;58747;50.674;4.616;2022-11-11T17:16:04;10.61;84.81
71088;SHT31;58747;50.674;4.616;2022-11-11T17:18:36;10.56;84.83
71088;SHT31;58747;50.674;4.616;2022-11-11T17:21:03;10.61;84.88
71088;SHT31;58747;50.674;4.616;2022-11-11T17:23:28;10.59;84.68
71088;SHT31;58747;50.674;4.616;2022-11-11T17:25:55;10.59;84.67
71088;SHT31;58747;50.674;4.616;2022-11-11T17:28:21;10.55;84.73
71088;SHT31;58747;50.674;4.616;2022-11-11T17:30:47;10.55;84.81
71088;SHT31;58747;50.674;4.616;2022-11-11T17:33:12;10.59;84.44
71088;SHT31;58747;50.674;4.616;2022-11-11T17:35:38;10.61;85.67
71088;SHT31;58747;50.674;4.616;2022-11-11T17:38:03;10.61;84.54
71088;SHT31;58747;50.674;4.616;2022-11-11T17:40:29;10.62;84.33
71088;SHT31;58747;50.674;4.616;2022-11-11T17:42:54;10.56;84.37
71088;SHT31;58747;50.674;4.616;2022-11-11T17:45:20;10.46;84.75
71088;SHT31;58747;50.674;4.616;2022-11-11T17:47:45;10.46;84.99
71088;SHT31;58747;50.674;4.616;2022-11-11T17:50:10;10.42;84.79
71088;SHT31;58747;50.674;4.616;2022-11-11T17:52:36;10.41;84.97